sensor_id;sensor_type;location;lat;lon;timestamp;temperature;humidity
2751;DHT22;1383;48.362;10.908;2022-12-08T00:01:08;3.30;69.10
2751;DHT22;1383;48.362;10.908;2022-12-08T00:03:35;3.30;68.40
2751;DHT22;1383;48.362;10.908;2022-12-08T00:06:04;3.30;69.10
2751;DHT22;1383;48.362;10.908;2022-12-08T00:08:49;3.30;69.00
2751;DHT22;1383;48.362;10.908;2022-12-08T00:11:35;3.40;68.50
2751;DHT22;1383;48.362;10.908;2022-12-08T00:14:02;3.40;68.40
2751;DHT22;1383;48.362;10.908;2022-12-08T00:16:29;3.50;68.20
2751;DHT22;1383;48.362;10.908;2022-12-08T00:18:56;3.50;67.60
2751;DHT22;1383;48.362;10.908;2022-12-08T00:21:22;3.50;67.10
2751;DHT22;1383;48.362;10.908;2022-12-08T00:23:49;3.50;67.50
2751;DHT22;1383;48.362;10.908;2022-12-08T00:26:16;3.60;67.60
2751;DHT22;1383;48.362;10.908;2022-12-08T00:28:43;3.60;67.30
2751;DHT22;1383;48.362;10.908;2022-12-08T00:31:10;3.60;66.30
2751;DHT22;1383;48.362;10.908;2022-12-08T00:33:37;3.60;66.10
2751;DHT22;1383;48.362;10.908;2022-12-08T00:36:09;3.60;65.90
2751;DHT22;1383;48.362;10.908;2022-12-08T00:38:37;3.50;65.70
2751;DHT22;1383;48.362;10.908;2022-12-08T00:41:11;3.40;66.50
2751;DHT22;1383;48.362;10.908;2022-12-08T00:43:38;3.40;67.10
2751;DHT22;1383;48.362;10.908;2022-12-08T00:46:05;3.40;67.40
2751;DHT22;1383;48.362;10.908;2022-12-08T00:48:32;3.40;66.90
2751;DHT22;1383;48.362;10.908;2022-12-08T00:50:59;3.40;67.20
2751;DHT22;1383;48.362;10.908;2022-12-08T00:53:26;3.40;67.50
2751;DHT22;1383;48.362;10.908;2022-12-08T00:55:53;3.50;67.40
2751;DHT22;1383;48.362;10.908;2022-12-08T00:58:20;3.50;67.00
2751;DHT22;1383;48.362;10.908;2022-12-08T01:00:46;3.40;67.10
2751;DHT22;1383;48.362;10.908;2022-12-08T01:03:14;3.30;67.30
2751;DHT22;1383;48.362;10.908;2022-12-08T01:05:40;3.20;68.30
2751;DHT22;1383;48.362;10.908;2022-12-08T01:08:07;3.20;69.00
2751;DHT22;1383;48.362;10.908;2022-12-08T01:10:35;3.20;69.50
2751;DHT22;1383;48.362;10.908;2022-12-08T01:13:03;3.20;69.30
2751;DHT22;1383;48.362;10.908;2022-12-08T01:15:30;3.30;69.40
2751;DHT22;1383;48.362;10.908;2022-12-08T01:17:56;3.30;69.30
2751;DHT22;1383;48.362;10.908;2022-12-08T01:20:23;3.40;69.30
2751;DHT22;1383;48.362;10.908;2022-12-08T01:22:50;3.30;68.90
2751;DHT22;1383;48.362;10.908;2022-12-08T01:25:17;3.40;69.20
2751;DHT22;1383;48.362;10.908;2022-12-08T01:27:44;3.40;68.90
2751;DHT22;1383;48.362;10.908;2022-12-08T01:30:11;3.50;68.30
2751;DHT22;1383;48.362;10.908;2022-12-08T01:32:38;3.50;67.80
2751;DHT22;1383;48.362;10.908;2022-12-08T01:35:05;3.40;67.50
2751;DHT22;1383;48.362;10.908;2022-12-08T01:37:32;3.40;68.10
2751;DHT22;1383;48.362;10.908;2022-12-08T01:39:59;3.50;68.00
2751;DHT22;1383;48.362;10.908;2022-12-08T01:42:26;3.50;67.50
2751;DHT22;1383;48.362;10.908;2022-12-08T01:45:01;3.40;67.50
2751;DHT22;1383;48.362;10.908;2022-12-08T01:47:37;3.30;67.10
2751;DHT22;1383;48.362;10.908;2022-12-08T01:50:09;3.30;68.30
2751;DHT22;1383;48.362;10.908;2022-12-08T01:52:40;3.40;68.00
2751;DHT22;1383;48.362;10.908;2022-12-08T01:55:19;3.50;67.80
2751;DHT22;1383;48.362;10.908;2022-12-08T01:57:50;3.60;67.00
2751;DHT22;1383;48.362;10.908;2022-12-08T02:00:21;3.60;66.70
2751;DHT22;1383;48.362;10.908;2022-12-08T02:02:56;3.60;66.10
2751;DHT22;1383;48.362;10.908;2022-12-08T02:05:27;3.50;65.60
2751;DHT22;1383;48.362;10.908;2022-12-08T02:07:54;3.40;66.80
2751;DHT22;1383;48.362;10.908;2022-12-08T02:10:23;3.40;66.80
2751;DHT22;1383;48.362;10.908;2022-12-08T02:12:52;3.40;67.20
2751;DHT22;1383;48.362;10.908;2022-12-08T02:15:33;3.40;66.70
2751;DHT22;1383;48.362;10.908;2022-12-08T02:18:06;3.30;67.30
2751;DHT22;1383;48.362;10.908;2022-12-08T02:34:20;3.40;67.60
2751;DHT22;1383;48.362;10.908;2022-12-08T02:39:51;3.40;66.80
2751;DHT22;1383;48.362;10.908;2022-12-08T02:45:45;3.40;66.40
2751;DHT22;1383;48.362;10.908;2022-12-08T02:48:13;3.40;66.40
2751;DHT22;1383;48.362;10.908;2022-12-08T02:50:40;3.40;66.30
2751;DHT22;1383;48.362;10.908;2022-12-08T02:53:08;3.40;66.90
2751;DHT22;1383;48.362;10.908;2022-12-08T02:59:01;3.40;66.60
2751;DHT22;1383;48.362;10.908;2022-12-08T03:04:41;3.50;66.70
2751;DHT22;1383;48.362;10.908;2022-12-08T03:07:20;3.60;66.00
2751;DHT22;1383;48.362;10.908;2022-12-08T03:09:59;3.60;65.20
2751;DHT22;1383;48.362;10.908;2022-12-08T03:12:37;3.60;64.70
2751;DHT22;1383;48.362;10.908;2022-12-08T03:15:09;3.60;64.20
2751;DHT22;1383;48.362;10.908;2022-12-08T03:17:38;3.60;63.50
2751;DHT22;1383;48.362;10.908;2022-12-08T03:20:10;3.60;63.70
2751;DHT22;1383;48.362;10.908;2022-12-08T03:22:39;3.60;64.00
2751;DHT22;1383;48.362;10.908;2022-12-08T03:25:09;3.60;63.70
2751;DHT22;1383;48.362;10.908;2022-12-08T03:27:38;3.50;63.60
2751;DHT22;1383;48.362;10.908;2022-12-08T03:30:06;3.50;63.90
2751;DHT22;1383;48.362;10.908;2022-12-08T03:35:10;3.60;63.50
2751;DHT22;1383;48.362;10.908;2022-12-08T03:37:38;3.50;63.60
2751;DHT22;1383;48.362;10.908;2022-12-08T03:40:08;3.40;64.80
2751;DHT22;1383;48.362;10.908;2022-12-08T03:42:35;3.40;65.60
2751;DHT22;1383;48.362;10.908;2022-12-08T03:45:03;3.30;66.50
2751;DHT22;1383;48.362;10.908;2022-12-08T03:47:30;3.30;66.80
2751;DHT22;1383;48.362;10.908;2022-12-08T03:49:57;3.30;67.20
2751;DHT22;1383;48.362;10.908;2022-12-08T03:52:24;3.30;66.90
2751;DHT22;1383;48.362;10.908;2022-12-08T03:54:50;3.30;67.40
2751;DHT22;1383;48.362;10.908;2022-12-08T03:57:17;3.20;67.30
2751;DHT22;1383;48.362;10.908;2022-12-08T03:59:44;3.10;68.30
2751;DHT22;1383;48.362;10.908;2022-12-08T04:02:11;3.10;68.30
2751;DHT22;1383;48.362;10.908;2022-12-08T04:04:38;3.10;68.50
2751;DHT22;1383;48.362;10.908;2022-12-08T04:07:04;3.10;68.70
2751;DHT22;1383;48.362;10.908;2022-12-08T04:09:31;3.10;68.80
2751;DHT22;1383;48.362;10.908;2022-12-08T04:11:58;3.10;69.10
2751;DHT22;1383;48.362;10.908;2022-12-08T04:14:24;3.10;68.90
2751;DHT22;1383;48.362;10.908;2022-12-08T04:16:51;3.20;69.00
2751;DHT22;1383;48.362;10.908;2022-12-08T04:19:18;3.20;69.00
2751;DHT22;1383;48.362;10.908;2022-12-08T04:21:45;3.00;68.00
2751;DHT22;1383;48.362;10.908;2022-12-08T04:24:12;2.90;68.80
2751;DHT22;1383;48.362;10.908;2022-12-08T04:26:38;2.80;69.90
2751;DHT22;1383;48.362;10.908;2022-12-08T04:29:05;2.90;70.10
2751;DHT22;1383;48.362;10.908;2022-12-08T04:31:32;2.80;70.00
2751;DHT22;1383;48.362;10.908;2022-12-08T04:33:59;2.90;70.10
2751;DHT22;1383;48.362;10.908;2022-12-08T04:36:26;2.80;69.80
2751;DHT22;1383;48.362;10.908;2022-12-08T04:38:53;2.80;70.40
2751;DHT22;1383;48.362;10.908;2022-12-08T04:41:20;2.80;70.80
2751;DHT22;1383;48.362;10.908;2022-12-08T04:43:46;2.80;71.00
2751;DHT22;1383;48.362;10.908;2022-12-08T04:46:13;2.80;71.20
2751;DHT22;1383;48.362;10.908;2022-12-08T04:48:40;2.70;71.00
2751;DHT22;1383;48.362;10.908;2022-12-08T04:51:14;2.60;71.30
2751;DHT22;1383;48.362;10.908;2022-12-08T04:53:43;2.60;72.10
2751;DHT22;1383;48.362;10.908;2022-12-08T04:56:16;2.70;72.40
2751;DHT22;1383;48.362;10.908;2022-12-08T04:58:44;2.70;72.60
2751;DHT22;1383;48.362;10.908;2022-12-08T05:01:11;2.70;72.40
2751;DHT22;1383;48.362;10.908;2022-12-08T05:03:39;2.80;72.50
2751;DHT22;1383;48.362;10.908;2022-12-08T05:06:05;2.80;72.10
2751;DHT22;1383;48.362;10.908;2022-12-08T05:08:32;2.70;71.70
2751;DHT22;1383;48.362;10.908;2022-12-08T05:11:08;2.70;71.90
2751;DHT22;1383;48.362;10.908;2022-12-08T05:13:35;2.60;72.80
2751;DHT22;1383;48.362;10.908;2022-12-08T05:18:30;2.60;73.20
2751;DHT22;1383;48.362;10.908;2022-12-08T05:20:56;2.60;73.00
2751;DHT22;1383;48.362;10.908;2022-12-08T05:23:23;2.60;73.00
2751;DHT22;1383;48.362;10.908;2022-12-08T05:25:50;2.70;72.90
2751;DHT22;1383;48.362;10.908;2022-12-08T05:28:17;2.70;72.70
2751;DHT22;1383;48.362;10.908;2022-12-08T05:31:04;2.60;73.50
2751;DHT22;1383;48.362;10.908;2022-12-08T05:33:31;2.60;72.80
2751;DHT22;1383;48.362;10.908;2022-12-08T05:35:57;2.60;72.70
2751;DHT22;1383;48.362;10.908;2022-12-08T05:38:24;2.60;72.50
2751;DHT22;1383;48.362;10.908;2022-12-08T05:40:51;2.50;72.50
2751;DHT22;1383;48.362;10.908;2022-12-08T05:43:18;2.50;72.70
2751;DHT22;1383;48.362;10.908;2022-12-08T05:45:45;2.30;72.50
2751;DHT22;1383;48.362;10.908;2022-12-08T05:48:12;2.40;72.80
2751;DHT22;1383;48.362;10.908;2022-12-08T05:50:39;2.40;72.70
2751;DHT22;1383;48.362;10.908;2022-12-08T05:53:05;2.40;73.10
2751;DHT22;1383;48.362;10.908;2022-12-08T05:55:32;2.30;72.50
2751;DHT22;1383;48.362;10.908;2022-12-08T05:57:59;2.20;72.40
2751;DHT22;1383;48.362;10.908;2022-12-08T06:00:33;2.10;72.50
2751;DHT22;1383;48.362;10.908;2022-12-08T06:03:00;2.10;73.20
2751;DHT22;1383;48.362;10.908;2022-12-08T06:05:27;2.10;73.20
2751;DHT22;1383;48.362;10.908;2022-12-08T06:07:54;2.10;73.60
2751;DHT22;1383;48.362;10.908;2022-12-08T06:10:21;2.00;73.30
2751;DHT22;1383;48.362;10.908;2022-12-08T06:12:47;1.90;73.20
2751;DHT22;1383;48.362;10.908;2022-12-08T06:15:14;1.90;74.00
2751;DHT22;1383;48.362;10.908;2022-12-08T06:17:41;2.00;74.30
2751;DHT22;1383;48.362;10.908;2022-12-08T06:20:08;2.00;74.40
2751;DHT22;1383;48.362;10.908;2022-12-08T06:22:36;2.10;74.40
2751;DHT22;1383;48.362;10.908;2022-12-08T06:25:04;2.00;74.20
2751;DHT22;1383;48.362;10.908;2022-12-08T06:27:35;1.90;74.50
2751;DHT22;1383;48.362;10.908;2022-12-08T06:30:03;1.90;74.40
2751;DHT22;1383;48.362;10.908;2022-12-08T06:32:30;1.80;74.70
2751;DHT22;1383;48.362;10.908;2022-12-08T06:34:57;1.80;75.60
2751;DHT22;1383;48.362;10.908;2022-12-08T06:37:24;1.80;77.00
2751;DHT22;1383;48.362;10.908;2022-12-08T06:39:50;1.80;77.30
2751;DHT22;1383;48.362;10.908;2022-12-08T06:42:17;1.80;77.50
2751;DHT22;1383;48.362;10.908;2022-12-08T06:45:03;1.90;77.00
2751;DHT22;1383;48.362;10.908;2022-12-08T06:47:30;1.80;77.10
2751;DHT22;1383;48.362;10.908;2022-12-08T06:49:56;1.90;77.30
2751;DHT22;1383;48.362;10.908;2022-12-08T06:52:23;1.80;77.60
2751;DHT22;1383;48.362;10.908;2022-12-08T06:54:50;1.90;77.70
2751;DHT22;1383;48.362;10.908;2022-12-08T06:57:17;1.90;77.80
2751;DHT22;1383;48.362;10.908;2022-12-08T06:59:44;1.90;77.50
2751;DHT22;1383;48.362;10.908;2022-12-08T07:02:11;1.90;77.30
2751;DHT22;1383;48.362;10.908;2022-12-08T07:04:38;1.90;77.80
2751;DHT22;1383;48.362;10.908;2022-12-08T07:07:04;2.00;77.90
2751;DHT22;1383;48.362;10.908;2022-12-08T07:09:31;2.10;78.00
2751;DHT22;1383;48.362;10.908;2022-12-08T07:11:58;2.10;77.80
2751;DHT22;1383;48.362;10.908;2022-12-08T07:14:25;2.30;78.10
2751;DHT22;1383;48.362;10.908;2022-12-08T07:16:52;2.40;77.20
2751;DHT22;1383;48.362;10.908;2022-12-08T07:19:19;2.40;76.40
2751;DHT22;1383;48.362;10.908;2022-12-08T07:21:46;2.30;75.70
2751;DHT22;1383;48.362;10.908;2022-12-08T07:24:13;2.20;75.90
2751;DHT22;1383;48.362;10.908;2022-12-08T07:26:40;2.20;76.50
2751;DHT22;1383;48.362;10.908;2022-12-08T07:29:08;2.20;76.30
2751;DHT22;1383;48.362;10.908;2022-12-08T07:31:36;2.40;76.80
2751;DHT22;1383;48.362;10.908;2022-12-08T07:34:03;2.40;76.90
2751;DHT22;1383;48.362;10.908;2022-12-08T07:36:30;2.40;76.60
2751;DHT22;1383;48.362;10.908;2022-12-08T07:38:58;2.50;76.70
2751;DHT22;1383;48.362;10.908;2022-12-08T07:41:25;2.60;76.90
2751;DHT22;1383;48.362;10.908;2022-12-08T07:43:52;2.70;76.00
2751;DHT22;1383;48.362;10.908;2022-12-08T07:46:21;2.80;75.20
2751;DHT22;1383;48.362;10.908;2022-12-08T07:48:48;2.60;73.60
2751;DHT22;1383;48.362;10.908;2022-12-08T07:51:16;2.40;74.00
2751;DHT22;1383;48.362;10.908;2022-12-08T07:53:44;2.30;75.30
2751;DHT22;1383;48.362;10.908;2022-12-08T07:56:19;2.50;76.10
2751;DHT22;1383;48.362;10.908;2022-12-08T07:58:46;2.60;75.70
2751;DHT22;1383;48.362;10.908;2022-12-08T08:01:27;2.70;75.70
2751;DHT22;1383;48.362;10.908;2022-12-08T08:03:56;2.80;75.90
2751;DHT22;1383;48.362;10.908;2022-12-08T08:06:23;2.90;74.40
2751;DHT22;1383;48.362;10.908;2022-12-08T08:08:50;3.00;72.70
2751;DHT22;1383;48.362;10.908;2022-12-08T08:11:17;3.00;72.50
2751;DHT22;1383;48.362;10.908;2022-12-08T08:13:47;3.00;72.20
2751;DHT22;1383;48.362;10.908;2022-12-08T08:16:14;3.00;72.10
2751;DHT22;1383;48.362;10.908;2022-12-08T08:18:41;3.20;71.30
2751;DHT22;1383;48.362;10.908;2022-12-08T08:21:09;3.20;70.70
2751;DHT22;1383;48.362;10.908;2022-12-08T08:23:56;3.20;71.00
2751;DHT22;1383;48.362;10.908;2022-12-08T08:26:22;3.30;70.50
2751;DHT22;1383;48.362;10.908;2022-12-08T08:28:49;3.30;70.80
2751;DHT22;1383;48.362;10.908;2022-12-08T08:31:16;3.40;70.30
2751;DHT22;1383;48.362;10.908;2022-12-08T08:33:43;3.30;69.60
2751;DHT22;1383;48.362;10.908;2022-12-08T08:36:10;3.40;70.10
2751;DHT22;1383;48.362;10.908;2022-12-08T08:38:37;3.40;69.20
2751;DHT22;1383;48.362;10.908;2022-12-08T08:41:09;3.40;68.90
2751;DHT22;1383;48.362;10.908;2022-12-08T08:43:36;3.40;68.90
2751;DHT22;1383;48.362;10.908;2022-12-08T08:46:05;3.50;68.80
2751;DHT22;1383;48.362;10.908;2022-12-08T08:48:33;3.40;67.70
2751;DHT22;1383;48.362;10.908;2022-12-08T08:51:07;3.40;66.70
2751;DHT22;1383;48.362;10.908;2022-12-08T08:53:34;3.50;66.40
2751;DHT22;1383;48.362;10.908;2022-12-08T08:56:01;3.60;65.60
2751;DHT22;1383;48.362;10.908;2022-12-08T08:58:30;3.70;64.80
2751;DHT22;1383;48.362;10.908;2022-12-08T09:00:57;3.40;64.20
2751;DHT22;1383;48.362;10.908;2022-12-08T09:03:24;3.10;65.10
2751;DHT22;1383;48.362;10.908;2022-12-08T09:05:51;2.90;66.50
2751;DHT22;1383;48.362;10.908;2022-12-08T09:08:18;3.00;68.10
2751;DHT22;1383;48.362;10.908;2022-12-08T09:10:45;3.10;68.50
2751;DHT22;1383;48.362;10.908;2022-12-08T09:13:12;3.20;68.30
2751;DHT22;1383;48.362;10.908;2022-12-08T09:15:39;3.20;67.90
2751;DHT22;1383;48.362;10.908;2022-12-08T09:18:06;3.30;67.20
2751;DHT22;1383;48.362;10.908;2022-12-08T09:20:34;3.20;67.00
2751;DHT22;1383;48.362;10.908;2022-12-08T09:23:01;3.30;67.20
2751;DHT22;1383;48.362;10.908;2022-12-08T09:25:28;3.40;67.20
2751;DHT22;1383;48.362;10.908;2022-12-08T09:27:55;3.40;66.40
2751;DHT22;1383;48.362;10.908;2022-12-08T09:30:21;3.40;66.20
2751;DHT22;1383;48.362;10.908;2022-12-08T09:32:51;3.20;65.90
2751;DHT22;1383;48.362;10.908;2022-12-08T09:35:18;3.20;66.70
2751;DHT22;1383;48.362;10.908;2022-12-08T09:37:46;3.30;67.10
2751;DHT22;1383;48.362;10.908;2022-12-08T09:40:16;3.40;66.80
2751;DHT22;1383;48.362;10.908;2022-12-08T09:45:50;3.60;66.80
2751;DHT22;1383;48.362;10.908;2022-12-08T09:48:23;3.50;65.40
2751;DHT22;1383;48.362;10.908;2022-12-08T09:50:54;3.30;65.80
2751;DHT22;1383;48.362;10.908;2022-12-08T09:56:14;3.50;66.90
2751;DHT22;1383;48.362;10.908;2022-12-08T10:01:45;3.50;65.90
2751;DHT22;1383;48.362;10.908;2022-12-08T10:04:28;3.50;65.70
2751;DHT22;1383;48.362;10.908;2022-12-08T10:07:23;3.50;66.10
2751;DHT22;1383;48.362;10.908;2022-12-08T10:18:24;3.50;65.10
2751;DHT22;1383;48.362;10.908;2022-12-08T10:20:53;3.60;65.30
2751;DHT22;1383;48.362;10.908;2022-12-08T10:23:32;3.60;65.10
2751;DHT22;1383;48.362;10.908;2022-12-08T10:26:04;3.70;64.50
2751;DHT22;1383;48.362;10.908;2022-12-08T10:28:33;3.80;63.60
2751;DHT22;1383;48.362;10.908;2022-12-08T10:31:03;3.60;63.70
2751;DHT22;1383;48.362;10.908;2022-12-08T10:33:31;3.50;63.90
2751;DHT22;1383;48.362;10.908;2022-12-08T10:36:00;3.40;63.30
2751;DHT22;1383;48.362;10.908;2022-12-08T10:38:37;3.40;62.70
2751;DHT22;1383;48.362;10.908;2022-12-08T10:43:42;3.70;62.20
2751;DHT22;1383;48.362;10.908;2022-12-08T10:46:13;3.50;61.20
2751;DHT22;1383;48.362;10.908;2022-12-08T10:51:27;3.80;61.50
2751;DHT22;1383;48.362;10.908;2022-12-08T10:53:54;3.90;60.90
2751;DHT22;1383;48.362;10.908;2022-12-08T10:56:27;3.80;59.80
2751;DHT22;1383;48.362;10.908;2022-12-08T11:01:38;3.90;59.50
2751;DHT22;1383;48.362;10.908;2022-12-08T11:04:19;3.90;59.90
2751;DHT22;1383;48.362;10.908;2022-12-08T11:06:48;4.10;59.30
2751;DHT22;1383;48.362;10.908;2022-12-08T11:11:57;4.20;57.80
2751;DHT22;1383;48.362;10.908;2022-12-08T11:14:30;4.20;57.50
2751;DHT22;1383;48.362;10.908;2022-12-08T11:19:39;4.20;56.40
2751;DHT22;1383;48.362;10.908;2022-12-08T11:25:09;3.80;55.30
2751;DHT22;1383;48.362;10.908;2022-12-08T11:27:40;3.60;56.60
2751;DHT22;1383;48.362;10.908;2022-12-08T11:30:25;3.70;56.90
2751;DHT22;1383;48.362;10.908;2022-12-08T11:33:00;3.90;56.80
2751;DHT22;1383;48.362;10.908;2022-12-08T11:35:30;4.00;56.90
2751;DHT22;1383;48.362;10.908;2022-12-08T11:38:12;4.10;55.90
2751;DHT22;1383;48.362;10.908;2022-12-08T11:40:54;4.10;54.90
2751;DHT22;1383;48.362;10.908;2022-12-08T11:43:39;4.20;54.70
2751;DHT22;1383;48.362;10.908;2022-12-08T11:49:07;4.10;53.50
2751;DHT22;1383;48.362;10.908;2022-12-08T11:51:58;4.10;53.20
2751;DHT22;1383;48.362;10.908;2022-12-08T11:54:33;4.20;53.20
2751;DHT22;1383;48.362;10.908;2022-12-08T11:57:03;4.40;52.60
2751;DHT22;1383;48.362;10.908;2022-12-08T11:59:40;4.50;52.20
2751;DHT22;1383;48.362;10.908;2022-12-08T12:02:21;4.60;51.80
2751;DHT22;1383;48.362;10.908;2022-12-08T12:16:17;4.80;50.50
2751;DHT22;1383;48.362;10.908;2022-12-08T12:18:50;4.50;51.20
2751;DHT22;1383;48.362;10.908;2022-12-08T12:21:43;4.60;51.10
2751;DHT22;1383;48.362;10.908;2022-12-08T12:24:21;4.50;51.50
2751;DHT22;1383;48.362;10.908;2022-12-08T12:29:28;4.60;52.80
2751;DHT22;1383;48.362;10.908;2022-12-08T12:32:02;4.70;52.10
2751;DHT22;1383;48.362;10.908;2022-12-08T12:34:49;4.70;52.20
2751;DHT22;1383;48.362;10.908;2022-12-08T12:37:20;4.40;52.30
2751;DHT22;1383;48.362;10.908;2022-12-08T12:53:03;4.30;54.00
2751;DHT22;1383;48.362;10.908;2022-12-08T12:56:02;4.50;54.40
2751;DHT22;1383;48.362;10.908;2022-12-08T13:03:48;4.10;54.80
2751;DHT22;1383;48.362;10.908;2022-12-08T13:06:35;4.00;55.50
2751;DHT22;1383;48.362;10.908;2022-12-08T13:09:03;4.20;55.60
2751;DHT22;1383;48.362;10.908;2022-12-08T13:11:46;4.20;56.30
2751;DHT22;1383;48.362;10.908;2022-12-08T13:14:45;4.30;56.00
2751;DHT22;1383;48.362;10.908;2022-12-08T13:17:24;4.30;55.90
2751;DHT22;1383;48.362;10.908;2022-12-08T13:19:59;4.40;55.80
2751;DHT22;1383;48.362;10.908;2022-12-08T13:28:22;4.20;55.70
2751;DHT22;1383;48.362;10.908;2022-12-08T13:33:32;4.00;56.90
2751;DHT22;1383;48.362;10.908;2022-12-08T13:36:34;3.90;57.10
2751;DHT22;1383;48.362;10.908;2022-12-08T13:39:04;3.70;58.20
2751;DHT22;1383;48.362;10.908;2022-12-08T13:41:36;3.70;58.70
2751;DHT22;1383;48.362;10.908;2022-12-08T13:44:20;3.70;58.70
2751;DHT22;1383;48.362;10.908;2022-12-08T13:47:11;3.60;60.10
2751;DHT22;1383;48.362;10.908;2022-12-08T13:50:16;3.70;60.10
2751;DHT22;1383;48.362;10.908;2022-12-08T13:56:03;3.70;59.60
2751;DHT22;1383;48.362;10.908;2022-12-08T13:58:50;3.90;59.40
2751;DHT22;1383;48.362;10.908;2022-12-08T14:01:40;4.00;59.60
2751;DHT22;1383;48.362;10.908;2022-12-08T14:04:14;3.90;58.40
2751;DHT22;1383;48.362;10.908;2022-12-08T14:07:02;3.90;58.60
2751;DHT22;1383;48.362;10.908;2022-12-08T14:09:35;3.90;59.00
2751;DHT22;1383;48.362;10.908;2022-12-08T14:14:39;3.90;58.30
2751;DHT22;1383;48.362;10.908;2022-12-08T14:17:26;3.80;57.70
2751;DHT22;1383;48.362;10.908;2022-12-08T14:20:16;4.00;57.80
2751;DHT22;1383;48.362;10.908;2022-12-08T14:22:45;3.90;57.40
2751;DHT22;1383;48.362;10.908;2022-12-08T14:25:14;4.10;57.80
2751;DHT22;1383;48.362;10.908;2022-12-08T14:27:41;4.20;57.30
2751;DHT22;1383;48.362;10.908;2022-12-08T14:32:45;4.30;57.10
2751;DHT22;1383;48.362;10.908;2022-12-08T14:35:29;4.40;57.00
2751;DHT22;1383;48.362;10.908;2022-12-08T14:38:01;4.40;56.90
2751;DHT22;1383;48.362;10.908;2022-12-08T14:40:39;4.50;56.80
2751;DHT22;1383;48.362;10.908;2022-12-08T14:45:59;4.40;55.60
2751;DHT22;1383;48.362;10.908;2022-12-08T14:53:36;4.20;56.80
2751;DHT22;1383;48.362;10.908;2022-12-08T14:58:50;4.00;57.50
2751;DHT22;1383;48.362;10.908;2022-12-08T15:01:26;3.80;58.30
2751;DHT22;1383;48.362;10.908;2022-12-08T15:07:06;3.70;59.30
2751;DHT22;1383;48.362;10.908;2022-12-08T15:09:42;3.80;59.30
2751;DHT22;1383;48.362;10.908;2022-12-08T15:14:55;3.70;59.70
2751;DHT22;1383;48.362;10.908;2022-12-08T15:17:44;3.70;59.90
2751;DHT22;1383;48.362;10.908;2022-12-08T15:20:38;3.60;60.10
2751;DHT22;1383;48.362;10.908;2022-12-08T15:23:19;3.50;60.20
2751;DHT22;1383;48.362;10.908;2022-12-08T15:25:47;3.40;61.00
2751;DHT22;1383;48.362;10.908;2022-12-08T15:28:17;3.40;61.10
2751;DHT22;1383;48.362;10.908;2022-12-08T15:30:45;3.50;61.10
2751;DHT22;1383;48.362;10.908;2022-12-08T15:33:12;3.50;61.40
2751;DHT22;1383;48.362;10.908;2022-12-08T15:35:39;3.50;62.20
2751;DHT22;1383;48.362;10.908;2022-12-08T15:38:16;3.40;62.10
2751;DHT22;1383;48.362;10.908;2022-12-08T15:40:43;3.40;62.50
2751;DHT22;1383;48.362;10.908;2022-12-08T15:43:10;3.50;62.70
2751;DHT22;1383;48.362;10.908;2022-12-08T15:45:37;3.50;62.80
2751;DHT22;1383;48.362;10.908;2022-12-08T15:48:17;3.50;63.10
2751;DHT22;1383;48.362;10.908;2022-12-08T15:50:45;3.60;62.60
2751;DHT22;1383;48.362;10.908;2022-12-08T15:53:13;3.70;62.50
2751;DHT22;1383;48.362;10.908;2022-12-08T15:55:40;3.70;62.50
2751;DHT22;1383;48.362;10.908;2022-12-08T15:58:27;3.80;62.10
2751;DHT22;1383;48.362;10.908;2022-12-08T16:01:14;3.90;63.50
2751;DHT22;1383;48.362;10.908;2022-12-08T16:03:42;3.90;62.90
2751;DHT22;1383;48.362;10.908;2022-12-08T16:06:29;3.90;62.10
2751;DHT22;1383;48.362;10.908;2022-12-08T16:09:22;3.90;61.20
2751;DHT22;1383;48.362;10.908;2022-12-08T16:11:52;3.80;61.60
2751;DHT22;1383;48.362;10.908;2022-12-08T16:14:38;3.80;61.40
2751;DHT22;1383;48.362;10.908;2022-12-08T16:17:27;3.80;61.50
2751;DHT22;1383;48.362;10.908;2022-12-08T16:19:54;3.80;61.30
2751;DHT22;1383;48.362;10.908;2022-12-08T16:22:29;3.90;61.50
2751;DHT22;1383;48.362;10.908;2022-12-08T16:25:16;3.90;61.20
2751;DHT22;1383;48.362;10.908;2022-12-08T16:27:50;3.90;60.90
2751;DHT22;1383;48.362;10.908;2022-12-08T16:30:34;3.70;60.90
2751;DHT22;1383;48.362;10.908;2022-12-08T16:33:01;3.70;62.10
2751;DHT22;1383;48.362;10.908;2022-12-08T16:35:28;3.80;62.20
2751;DHT22;1383;48.362;10.908;2022-12-08T16:37:55;3.90;62.00
2751;DHT22;1383;48.362;10.908;2022-12-08T16:40:22;3.90;61.40
2751;DHT22;1383;48.362;10.908;2022-12-08T16:42:49;3.80;61.20
2751;DHT22;1383;48.362;10.908;2022-12-08T16:45:18;3.80;61.70
2751;DHT22;1383;48.362;10.908;2022-12-08T16:50:25;3.60;62.70
2751;DHT22;1383;48.362;10.908;2022-12-08T16:53:05;3.60;63.40
2751;DHT22;1383;48.362;10.908;2022-12-08T16:55:33;3.80;63.50
2751;DHT22;1383;48.362;10.908;2022-12-08T16:58:01;3.70;62.80
2751;DHT22;1383;48.362;10.908;2022-12-08T17:00:29;3.70;62.80
2751;DHT22;1383;48.362;10.908;2022-12-08T17:02:56;3.70;62.80
2751;DHT22;1383;48.362;10.908;2022-12-08T17:05:25;3.70;63.20
2751;DHT22;1383;48.362;10.908;2022-12-08T17:07:52;3.70;63.30
2751;DHT22;1383;48.362;10.908;2022-12-08T17:10:25;3.80;63.40
2751;DHT22;1383;48.362;10.908;2022-12-08T17:12:52;3.80;63.30
2751;DHT22;1383;48.362;10.908;2022-12-08T17:15:22;3.80;63.20
2751;DHT22;1383;48.362;10.908;2022-12-08T17:17:50;3.90;63.40
2751;DHT22;1383;48.362;10.908;2022-12-08T17:20:20;3.90;63.00
2751;DHT22;1383;48.362;10.908;2022-12-08T17:22:47;3.90;62.90
2751;DHT22;1383;48.362;10.908;2022-12-08T17:25:14;3.90;63.20
2751;DHT22;1383;48.362;10.908;2022-12-08T17:27:41;3.90;62.80
2751;DHT22;1383;48.362;10.908;2022-12-08T17:30:10;3.90;62.80
2751;DHT22;1383;48.362;10.908;2022-12-08T17:32:37;3.80;62.90
2751;DHT22;1383;48.362;10.908;2022-12-08T17:35:05;3.80;62.90
2751;DHT22;1383;48.362;10.908;2022-12-08T17:37:33;3.90;62.90
2751;DHT22;1383;48.362;10.908;2022-12-08T17:40:00;3.90;62.60
2751;DHT22;1383;48.362;10.908;2022-12-08T17:42:27;3.80;62.30
2751;DHT22;1383;48.362;10.908;2022-12-08T17:44:54;3.80;63.00
2751;DHT22;1383;48.362;10.908;2022-12-08T17:47:21;3.80;62.90
2751;DHT22;1383;48.362;10.908;2022-12-08T17:49:48;3.80;63.20
2751;DHT22;1383;48.362;10.908;2022-12-08T17:52:14;3.90;63.20
2751;DHT22;1383;48.362;10.908;2022-12-08T17:54:41;3.90;62.80
2751;DHT22;1383;48.362;10.908;2022-12-08T17:57:08;3.90;63.00
2751;DHT22;1383;48.362;10.908;2022-12-08T17:59:34;3.90;63.00
2751;DHT22;1383;48.362;10.908;2022-12-08T18:02:01;3.80;63.10
2751;DHT22;1383;48.362;10.908;2022-12-08T18:04:30;3.90;63.50
2751;DHT22;1383;48.362;10.908;2022-12-08T18:06:56;3.80;63.40
2751;DHT22;1383;48.362;10.908;2022-12-08T18:09:25;3.80;64.30
2751;DHT22;1383;48.362;10.908;2022-12-08T18:11:52;3.70;64.20
2751;DHT22;1383;48.362;10.908;2022-12-08T18:14:19;3.60;65.00
2751;DHT22;1383;48.362;10.908;2022-12-08T18:16:46;3.60;65.20
2751;DHT22;1383;48.362;10.908;2022-12-08T18:19:14;3.70;65.80
2751;DHT22;1383;48.362;10.908;2022-12-08T18:21:41;3.70;65.70
2751;DHT22;1383;48.362;10.908;2022-12-08T18:24:16;3.70;65.30
2751;DHT22;1383;48.362;10.908;2022-12-08T18:26:44;3.70;65.90
2751;DHT22;1383;48.362;10.908;2022-12-08T18:29:10;3.70;65.70
2751;DHT22;1383;48.362;10.908;2022-12-08T18:31:37;3.70;65.70
2751;DHT22;1383;48.362;10.908;2022-12-08T18:34:04;3.60;65.90
2751;DHT22;1383;48.362;10.908;2022-12-08T18:36:31;3.60;66.00
2751;DHT22;1383;48.362;10.908;2022-12-08T18:38:58;3.70;66.20
2751;DHT22;1383;48.362;10.908;2022-12-08T18:41:25;3.70;66.30